Time;durP1;ratioP1;P1;durP2;ratioP2;P2;SDS_P1;SDS_P2;PMS_P1;PMS_P2;Temp;Humidity;BMP_temperature;BMP_pressure;BME280_temperature;BME280_humidity;BME280_pressure;Samples;Min_cycle;Max_cycle;Signal;HPM_P1;HPM_P2
2022/09/10 00:01:13;;;;;;;2.25;1.00;;;;;;;;;;8294159;28;20415;-57
2022/09/10 00:05:13;;;;;;;2.70;1.10;;;;;;;;;;8294686;28;20144;-56
2022/09/10 00:09:13;;;;;;;5.07;1.40;;;;;;;;;;8290815;28;20041;-56
2022/09/10 00:13:15;;;;;;;2.70;1.45;;;;;;;;;;8290945;28;20034;-56
2022/09/10 00:17:15;;;;;;;2.45;1.30;;;;;;;;;;8293111;28;20165;-57
2022/09/10 00:21:17;;;;;;;5.20;1.35;;;;;;;;;;8297021;28;20083;-57
2022/09/10 00:25:17;;;;;;;1.65;1.25;;;;;;;;;;8294711;28;20075;-58
2022/09/10 00:29:18;;;;;;;1.63;1.13;;;;;;;;;;8295367;28;20021;-57
2022/09/10 00:33:19;;;;;;;3.17;1.20;;;;;;;;;;8291880;28;20053;-56
2022/09/10 00:37:19;;;;;;;2.55;1.20;;;;;;;;;;8292768;28;20028;-57
2022/09/10 00:41:21;;;;;;;2.47;1.50;;;;;;;;;;8293309;28;20037;-58
2022/09/10 00:45:26;;;;;;;2.60;1.23;;;;;;;;;;8283593;28;20048;-56
2022/09/10 00:49:31;;;;;;;3.28;1.20;;;;;;;;;;8294466;28;20013;-59
2022/09/10 00:53:32;;;;;;;1.50;1.13;;;;;;;;;;8294015;28;20029;-57
2022/09/10 00:57:32;;;;;;;1.80;1.20;;;;;;;;;;8281703;28;20055;-56
2022/09/10 01:01:33;;;;;;;5.83;1.80;;;;;;;;;;8293995;28;20984;-57
2022/09/10 01:05:33;;;;;;;2.50;1.13;;;;;;;;;;8293421;28;20036;-56
2022/09/10 01:09:33;;;;;;;1.23;1.13;;;;;;;;;;8291121;28;20022;-57
2022/09/10 01:13:36;;;;;;;2.22;1.30;;;;;;;;;;8291346;28;20113;-57
2022/09/10 01:17:51;;;;;;;5.70;1.48;;;;;;;;;;8286328;28;20042;-57
2022/09/10 01:22:06;;;;;;;1.75;1.10;;;;;;;;;;8293210;28;20030;-57
2022/09/10 01:26:24;;;;;;;5.38;1.60;;;;;;;;;;8294339;28;20022;-57
2022/09/10 01:30:44;;;;;;;1.77;1.40;;;;;;;;;;8293324;28;20041;-57
2022/09/10 01:34:53;;;;;;;3.78;1.80;;;;;;;;;;8294630;28;20033;-57
2022/09/10 01:38:57;;;;;;;3.35;1.55;;;;;;;;;;8292687;28;20032;-57
2022/09/10 01:43:11;;;;;;;2.38;1.60;;;;;;;;;;8294435;28;20021;-57
2022/09/10 01:47:13;;;;;;;5.32;1.90;;;;;;;;;;8300219;28;20167;-57
2022/09/10 01:51:20;;;;;;;6.38;2.05;;;;;;;;;;8300852;28;20098;-57
2022/09/10 01:55:21;;;;;;;2.15;1.67;;;;;;;;;;8303573;28;20418;-57
2022/09/10 01:59:27;;;;;;;3.78;2.30;;;;;;;;;;8302955;28;20026;-56
2022/09/10 02:03:28;;;;;;;6.38;2.33;;;;;;;;;;8298041;28;20096;-57
2022/09/10 02:07:30;;;;;;;8.48;2.42;;;;;;;;;;8299339;28;20587;-57
2022/09/10 02:11:41;;;;;;;3.25;1.75;;;;;;;;;;8297659;28;20660;-57
2022/09/10 02:15:41;;;;;;;3.70;2.17;;;;;;;;;;8297824;28;20036;-57
2022/09/10 02:19:43;;;;;;;3.30;2.37;;;;;;;;;;8296308;28;20025;-57
2022/09/10 02:23:47;;;;;;;4.03;2.13;;;;;;;;;;8296254;28;20022;-57
2022/09/10 02:27:47;;;;;;;6.13;2.28;;;;;;;;;;8299826;28;20025;-57
2022/09/10 02:31:48;;;;;;;4.03;2.03;;;;;;;;;;8294644;28;20095;-57
2022/09/10 02:35:48;;;;;;;5.87;1.80;;;;;;;;;;8301227;28;20056;-57
2022/09/10 02:39:49;;;;;;;5.57;2.03;;;;;;;;;;8299470;28;20304;-57
2022/09/10 02:43:49;;;;;;;5.70;1.95;;;;;;;;;;8299408;28;20041;-57
2022/09/10 02:47:50;;;;;;;5.28;2.38;;;;;;;;;;8297347;28;20041;-57
2022/09/10 02:51:50;;;;;;;3.92;2.40;;;;;;;;;;8296926;28;20427;-57
2022/09/10 02:55:50;;;;;;;4.80;2.30;;;;;;;;;;8294928;28;20034;-57
2022/09/10 02:59:52;;;;;;;3.63;2.50;;;;;;;;;;8295716;28;20029;-57
2022/09/10 03:03:54;;;;;;;3.42;2.05;;;;;;;;;;8295171;28;20037;-57
2022/09/10 03:07:54;;;;;;;3.65;2.40;;;;;;;;;;8293037;28;20041;-56
2022/09/10 03:11:55;;;;;;;5.63;2.83;;;;;;;;;;8295065;28;20470;-59
2022/09/10 03:15:57;;;;;;;4.50;2.57;;;;;;;;;;8295304;28;20041;-57
2022/09/10 03:19:57;;;;;;;4.90;2.70;;;;;;;;;;8294903;28;20251;-57
2022/09/10 03:23:57;;;;;;;3.03;2.60;;;;;;;;;;8293280;28;20547;-57
2022/09/10 03:27:58;;;;;;;3.58;2.63;;;;;;;;;;8291760;28;20025;-57
2022/09/10 03:32:00;;;;;;;3.67;2.50;;;;;;;;;;8296364;28;20040;-57
2022/09/10 03:36:01;;;;;;;4.65;2.70;;;;;;;;;;8294500;28;20076;-57
2022/09/10 03:40:02;;;;;;;4.25;2.30;;;;;;;;;;8294900;28;20310;-57
2022/09/10 03:44:02;;;;;;;5.85;2.40;;;;;;;;;;8292547;28;20026;-57
2022/09/10 03:48:02;;;;;;;4.65;2.40;;;;;;;;;;8294195;28;20116;-57
2022/09/10 03:52:03;;;;;;;4.97;1.88;;;;;;;;;;8296920;28;20037;-57
2022/09/10 03:56:03;;;;;;;7.03;2.33;;;;;;;;;;8294952;28;20094;-56
2022/09/10 04:00:04;;;;;;;2.08;1.70;;;;;;;;;;8292697;28;20395;-58
2022/09/10 04:04:04;;;;;;;5.03;1.90;;;;;;;;;;8291912;28;20053;-57
2022/09/10 04:08:06;;;;;;;7.50;1.70;;;;;;;;;;8292772;28;20029;-57
2022/09/10 04:12:06;;;;;;;3.35;1.40;;;;;;;;;;8294912;28;20025;-56
2022/09/10 04:16:07;;;;;;;2.25;1.40;;;;;;;;;;8292183;28;20478;-57
2022/09/10 04:20:08;;;;;;;2.97;1.30;;;;;;;;;;8294435;28;20109;-57
2022/09/10 04:24:10;;;;;;;6.45;1.40;;;;;;;;;;8294553;28;20295;-56
2022/09/10 04:28:11;;;;;;;3.08;1.38;;;;;;;;;;8292675;28;20493;-57
2022/09/10 04:32:11;;;;;;;5.15;1.60;;;;;;;;;;8292726;28;20453;-57
2022/09/10 04:36:14;;;;;;;3.47;1.70;;;;;;;;;;8294121;28;20040;-56
2022/09/10 04:40:14;;;;;;;3.38;1.40;;;;;;;;;;8294575;28;20044;-57
2022/09/10 04:44:18;;;;;;;1.83;1.20;;;;;;;;;;8293371;28;20046;-56
2022/09/10 04:48:19;;;;;;;1.83;1.30;;;;;;;;;;8292759;28;20045;-57
2022/09/10 04:52:21;;;;;;;2.08;1.00;;;;;;;;;;8296508;28;20025;-57
2022/09/10 04:56:21;;;;;;;1.85;1.30;;;;;;;;;;8292484;28;20076;-57
2022/09/10 05:00:22;;;;;;;2.30;1.10;;;;;;;;;;8293536;28;20021;-57
2022/09/10 05:04:22;;;;;;;2.90;1.00;;;;;;;;;;8292842;28;20042;-57
2022/09/10 05:08:23;;;;;;;1.70;0.90;;;;;;;;;;8294032;28;20028;-57
2022/09/10 05:12:23;;;;;;;2.00;1.20;;;;;;;;;;8289299;28;20444;-57
2022/09/10 05:16:23;;;;;;;0.87;0.80;;;;;;;;;;8293473;28;20037;-57
2022/09/10 05:20:23;;;;;;;1.02;0.95;;;;;;;;;;8298383;28;20689;-56
2022/09/10 05:24:23;;;;;;;6.43;1.10;;;;;;;;;;8298699;28;20033;-57
2022/09/10 05:28:24;;;;;;;1.90;0.90;;;;;;;;;;8298925;28;20264;-57
2022/09/10 05:32:24;;;;;;;1.98;0.90;;;;;;;;;;8294673;28;20038;-57
2022/09/10 05:36:24;;;;;;;0.75;0.70;;;;;;;;;;8298154;28;20113;-57
2022/09/10 05:40:24;;;;;;;1.35;0.63;;;;;;;;;;8295859;28;20079;-57
2022/09/10 05:44:25;;;;;;;2.05;0.80;;;;;;;;;;8297883;28;20029;-57
2022/09/10 05:48:25;;;;;;;1.08;0.88;;;;;;;;;;8291403;28;20041;-57
2022/09/10 05:52:25;;;;;;;1.13;1.00;;;;;;;;;;8295129;28;20076;-57
2022/09/10 05:56:25;;;;;;;2.45;1.05;;;;;;;;;;8296795;28;20040;-56
2022/09/10 06:00:26;;;;;;;3.35;1.05;;;;;;;;;;8298124;28;20037;-57
2022/09/10 06:04:26;;;;;;;1.63;1.27;;;;;;;;;;8294183;28;20062;-57
2022/09/10 06:08:26;;;;;;;1.60;1.20;;;;;;;;;;8296142;28;20280;-57
2022/09/10 06:12:26;;;;;;;2.77;1.50;;;;;;;;;;8301579;28;20025;-56
2022/09/10 06:16:27;;;;;;;4.95;1.45;;;;;;;;;;8287658;28;20061;-57
2022/09/10 06:20:27;;;;;;;2.95;1.27;;;;;;;;;;8293291;28;20062;-57
2022/09/10 06:24:27;;;;;;;3.67;1.52;;;;;;;;;;8293659;28;20029;-57
2022/09/10 06:29:02;;;;;;;5.10;1.63;;;;;;;;;;8300379;28;20042;-59
2022/09/10 06:33:02;;;;;;;7.18;1.60;;;;;;;;;;8293060;28;20037;-57
2022/09/10 06:37:03;;;;;;;5.18;1.60;;;;;;;;;;8293755;28;21061;-57
2022/09/10 06:41:04;;;;;;;5.85;1.65;;;;;;;;;;8294787;28;20080;-57
2022/09/10 06:45:05;;;;;;;3.88;1.65;;;;;;;;;;8294310;28;20033;-59
2022/09/10 06:49:05;;;;;;;3.13;1.38;;;;;;;;;;8294527;28;20348;-60
2022/09/10 06:53:05;;;;;;;3.50;1.50;;;;;;;;;;8295169;28;20172;-57
2022/09/10 06:57:05;;;;;;;4.33;1.77;;;;;;;;;;8298899;28;20207;-57
2022/09/10 07:01:24;;;;;;;5.07;1.80;;;;;;;;;;8288799;28;20036;-60
2022/09/10 07:05:26;;;;;;;5.28;1.90;;;;;;;;;;8298429;28;20041;-61
2022/09/10 07:09:26;;;;;;;3.78;1.67;;;;;;;;;;8295866;28;20441;-60
2022/09/10 07:13:26;;;;;;;5.88;1.70;;;;;;;;;;8291446;28;20026;-60
2022/09/10 07:17:27;;;;;;;7.18;1.90;;;;;;;;;;8291458;28;20067;-60
2022/09/10 07:21:27;;;;;;;6.60;1.73;;;;;;;;;;8292848;28;20040;-60
2022/09/10 07:25:27;;;;;;;8.73;1.83;;;;;;;;;;8294438;28;20029;-60
2022/09/10 07:29:30;;;;;;;7.37;1.80;;;;;;;;;;8294630;28;20033;-65
2022/09/10 07:33:30;;;;;;;5.97;1.58;;;;;;;;;;8290591;28;20065;-61
2022/09/10 07:37:30;;;;;;;6.43;1.73;;;;;;;;;;8294169;28;20043;-61
2022/09/10 07:41:32;;;;;;;3.87;1.57;;;;;;;;;;8295295;28;20044;-59
2022/09/10 07:45:32;;;;;;;6.28;1.58;;;;;;;;;;8294644;28;21223;-60
2022/09/10 07:49:33;;;;;;;8.40;1.40;;;;;;;;;;8292433;28;20450;-60
2022/09/10 07:53:34;;;;;;;6.63;1.90;;;;;;;;;;8282272;28;20049;-59
2022/09/10 07:57:36;;;;;;;7.63;1.40;;;;;;;;;;8281496;28;20029;-59
2022/09/10 08:01:36;;;;;;;2.88;1.40;;;;;;;;;;8284091;28;20655;-59
2022/09/10 08:05:38;;;;;;;5.15;1.50;;;;;;;;;;8283594;28;20026;-59
2022/09/10 08:09:38;;;;;;;4.72;1.40;;;;;;;;;;8286730;28;20216;-60
2022/09/10 08:13:40;;;;;;;7.03;1.42;;;;;;;;;;8286938;28;20392;-59
2022/09/10 08:17:40;;;;;;;5.32;1.60;;;;;;;;;;8283210;28;20628;-60
2022/09/10 08:21:40;;;;;;;3.78;1.40;;;;;;;;;;8284787;28;20379;-59
2022/09/10 08:25:47;;;;;;;7.13;1.50;;;;;;;;;;8286608;28;20040;-59
2022/09/10 08:29:48;;;;;;;5.05;1.50;;;;;;;;;;8284659;28;20030;-60
2022/09/10 08:33:49;;;;;;;6.68;2.08;;;;;;;;;;8282717;28;20128;-59
2022/09/10 08:37:49;;;;;;;6.53;1.80;;;;;;;;;;8283907;28;20359;-59
2022/09/10 08:41:52;;;;;;;4.38;1.63;;;;;;;;;;8286567;28;20300;-59
2022/09/10 08:45:53;;;;;;;2.88;1.40;;;;;;;;;;8283047;28;20145;-59
2022/09/10 08:49:53;;;;;;;3.15;1.40;;;;;;;;;;8283667;28;20033;-59
2022/09/10 08:53:58;;;;;;;4.90;1.50;;;;;;;;;;8284973;28;20100;-59
2022/09/10 08:58:03;;;;;;;6.45;1.40;;;;;;;;;;8285687;28;20026;-60
2022/09/10 09:02:30;;;;;;;4.43;1.50;;;;;;;;;;8280223;28;20217;-59
2022/09/10 09:06:45;;;;;;;6.13;1.48;;;;;;;;;;8282732;28;20045;-59
2022/09/10 09:10:45;;;;;;;4.15;1.50;;;;;;;;;;8290992;28;20033;-60
2022/09/10 09:14:51;;;;;;;3.95;1.45;;;;;;;;;;8291817;28;20044;-60
2022/09/10 09:19:13;;;;;;;3.72;1.70;;;;;;;;;;8291793;28;20048;-59
2022/09/10 09:23:19;;;;;;;3.53;1.38;;;;;;;;;;8291727;28;20036;-59
2022/09/10 09:27:20;;;;;;;5.97;1.70;;;;;;;;;;8292686;28;20105;-59
2022/09/10 09:31:41;;;;;;;3.72;1.35;;;;;;;;;;8289663;28;20038;-60
2022/09/10 09:35:51;;;;;;;5.72;1.50;;;;;;;;;;8290589;28;20129;-59
2022/09/10 09:39:58;;;;;;;5.88;1.25;;;;;;;;;;8289009;28;20037;-59
2022/09/10 09:44:01;;;;;;;2.42;1.27;;;;;;;;;;8291242;28;20240;-60
2022/09/10 09:48:05;;;;;;;6.00;1.17;;;;;;;;;;8317583;28;20048;-60
2022/09/10 09:52:25;;;;;;;2.53;1.10;;;;;;;;;;8318702;28;20025;-59
2022/09/10 09:56:37;;;;;;;3.15;1.17;;;;;;;;;;8318940;28;21016;-59
2022/09/10 10:00:38;;;;;;;4.53;1.25;;;;;;;;;;8315209;28;20041;-60
2022/09/10 10:04:40;;;;;;;2.35;1.20;;;;;;;;;;8291055;28;20666;-59
2022/09/10 10:08:56;;;;;;;2.13;0.90;;;;;;;;;;8296162;28;20049;-60
2022/09/10 10:12:56;;;;;;;3.90;0.95;;;;;;;;;;8295885;28;20187;-60
2022/09/10 10:16:57;;;;;;;3.13;0.97;;;;;;;;;;8292453;28;20041;-60
2022/09/10 10:21:16;;;;;;;1.75;0.80;;;;;;;;;;8295529;28;20104;-63
2022/09/10 10:25:33;;;;;;;3.20;0.98;;;;;;;;;;8294399;28;20030;-59
2022/09/10 10:29:33;;;;;;;4.60;1.10;;;;;;;;;;8296795;28;20030;-59
2022/09/10 10:33:34;;;;;;;2.00;0.90;;;;;;;;;;8291411;28;20036;-59
2022/09/10 10:37:45;;;;;;;3.80;1.15;;;;;;;;;;8295166;28;20095;-60
2022/09/10 10:41:54;;;;;;;3.25;0.85;;;;;;;;;;8288028;28;20218;-60
2022/09/10 10:45:54;;;;;;;2.25;0.90;;;;;;;;;;8292229;28;20625;-60
2022/09/10 10:50:02;;;;;;;3.33;0.95;;;;;;;;;;8295750;28;20056;-60
2022/09/10 10:54:13;;;;;;;3.45;0.90;;;;;;;;;;8291789;28;20022;-59
2022/09/10 10:58:32;;;;;;;2.28;0.90;;;;;;;;;;8293351;28;20021;-60
2022/09/10 11:02:42;;;;;;;1.15;0.75;;;;;;;;;;8294226;28;20044;-60
2022/09/10 11:06:44;;;;;;;0.98;0.70;;;;;;;;;;8296606;28;20198;-60
2022/09/10 11:10:55;;;;;;;0.70;0.70;;;;;;;;;;8294001;28;20105;-60
2022/09/10 11:15:00;;;;;;;1.05;0.60;;;;;;;;;;8295350;28;20125;-60
2022/09/10 11:19:14;;;;;;;1.77;0.75;;;;;;;;;;8292920;28;20130;-59
2022/09/10 11:23:23;;;;;;;0.70;0.60;;;;;;;;;;8290241;28;20754;-59
2022/09/10 11:27:29;;;;;;;0.70;0.70;;;;;;;;;;8290919;28;20479;-59
2022/09/10 11:31:41;;;;;;;0.68;0.52;;;;;;;;;;8287464;28;20079;-60
2022/09/10 11:35:45;;;;;;;0.98;0.60;;;;;;;;;;8291691;28;20469;-59
2022/09/10 11:39:47;;;;;;;0.80;0.60;;;;;;;;;;8290408;28;20148;-60
2022/09/10 11:43:53;;;;;;;0.50;0.50;;;;;;;;;;8289233;28;20029;-59
2022/09/10 11:48:19;;;;;;;0.40;0.40;;;;;;;;;;8287181;28;20119;-59
2022/09/10 11:52:20;;;;;;;2.03;0.60;;;;;;;;;;8288241;28;20038;-60
2022/09/10 11:56:45;;;;;;;1.15;0.57;;;;;;;;;;8291486;28;20119;-60
2022/09/10 12:00:53;;;;;;;0.40;0.40;;;;;;;;;;8291723;28;20041;-60
2022/09/10 12:05:05;;;;;;;0.57;0.50;;;;;;;;;;8290713;28;20040;-60
2022/09/10 12:09:21;;;;;;;1.05;0.70;;;;;;;;;;8290666;28;20033;-60
2022/09/10 12:13:22;;;;;;;0.75;0.60;;;;;;;;;;8290917;28;20160;-61
2022/09/10 12:17:22;;;;;;;0.73;0.52;;;;;;;;;;8291075;28;20041;-59
2022/09/10 12:21:31;;;;;;;1.30;0.65;;;;;;;;;;8291523;28;20539;-60
2022/09/10 12:25:32;;;;;;;0.88;0.60;;;;;;;;;;8290859;28;20116;-59
2022/09/10 12:29:42;;;;;;;0.60;0.60;;;;;;;;;;8301701;28;20431;-60
2022/09/10 12:33:45;;;;;;;0.50;0.50;;;;;;;;;;8287971;28;20038;-60
2022/09/10 12:37:45;;;;;;;0.75;0.60;;;;;;;;;;8290873;28;20025;-59
2022/09/10 12:41:45;;;;;;;2.77;0.67;;;;;;;;;;8289293;28;20107;-60
2022/09/10 12:46:05;;;;;;;2.27;0.57;;;;;;;;;;8287845;28;20040;-60
2022/09/10 12:50:25;;;;;;;2.40;0.70;;;;;;;;;;8289171;28;20037;-60
2022/09/10 12:54:45;;;;;;;1.52;0.80;;;;;;;;;;8279803;28;20481;-60
2022/09/10 12:59:05;;;;;;;0.95;0.60;;;;;;;;;;8292098;28;20045;-60
2022/09/10 13:03:05;;;;;;;1.15;0.50;;;;;;;;;;8287818;28;20065;-60
2022/09/10 13:07:20;;;;;;;0.95;0.60;;;;;;;;;;8288312;28;20056;-59
2022/09/10 13:11:22;;;;;;;1.17;0.45;;;;;;;;;;8292187;28;20025;-59
2022/09/10 13:15:23;;;;;;;2.15;0.85;;;;;;;;;;8287254;28;20116;-60
2022/09/10 13:19:23;;;;;;;1.20;0.73;;;;;;;;;;8289694;28;20053;-60
2022/09/10 13:23:45;;;;;;;1.10;0.60;;;;;;;;;;8290032;28;20035;-59
2022/09/10 13:27:47;;;;;;;0.70;0.60;;;;;;;;;;8288503;28;20435;-60
2022/09/10 13:31:53;;;;;;;0.60;0.60;;;;;;;;;;8290345;28;20833;-60
2022/09/10 13:36:03;;;;;;;0.60;0.60;;;;;;;;;;8287719;28;20512;-59
2022/09/10 13:40:17;;;;;;;1.27;0.70;;;;;;;;;;8292042;28;20950;-60
2022/09/10 13:44:30;;;;;;;0.65;0.60;;;;;;;;;;8294477;28;20086;-60
2022/09/10 13:48:40;;;;;;;0.90;0.60;;;;;;;;;;8297215;28;20037;-60
2022/09/10 13:52:42;;;;;;;0.90;0.52;;;;;;;;;;8296312;28;20028;-59
2022/09/10 13:56:44;;;;;;;0.60;0.60;;;;;;;;;;8294540;28;20571;-59
2022/09/10 14:00:50;;;;;;;1.00;0.60;;;;;;;;;;8293171;28;20041;-60
2022/09/10 14:04:51;;;;;;;1.88;0.60;;;;;;;;;;8295787;28;20080;-59
2022/09/10 14:08:54;;;;;;;0.50;0.50;;;;;;;;;;8295321;28;20025;-60
2022/09/10 14:12:54;;;;;;;3.00;0.60;;;;;;;;;;8294485;28;20080;-59
2022/09/10 14:17:15;;;;;;;0.55;0.50;;;;;;;;;;8293102;28;20083;-59
2022/09/10 14:21:15;;;;;;;0.70;0.70;;;;;;;;;;8293171;28;20013;-59
2022/09/10 14:25:45;;;;;;;1.23;0.80;;;;;;;;;;8295103;28;20025;-59
2022/09/10 14:29:45;;;;;;;0.77;0.77;;;;;;;;;;8287780;28;20044;-59
2022/09/10 14:33:46;;;;;;;1.65;0.75;;;;;;;;;;8292997;28;20045;-59
2022/09/10 14:37:46;;;;;;;0.70;0.70;;;;;;;;;;8298246;28;21015;-59
2022/09/10 14:41:46;;;;;;;1.38;0.60;;;;;;;;;;8294478;28;20026;-60
2022/09/10 14:45:48;;;;;;;0.70;0.70;;;;;;;;;;8294250;28;20210;-60
2022/09/10 14:49:48;;;;;;;0.80;0.80;;;;;;;;;;8295486;28;20916;-60
2022/09/10 14:53:49;;;;;;;1.20;0.80;;;;;;;;;;8296217;28;20069;-60
2022/09/10 14:57:51;;;;;;;0.93;0.68;;;;;;;;;;8295017;28;20064;-59
2022/09/10 15:01:51;;;;;;;1.00;0.70;;;;;;;;;;8294657;28;20037;-60
2022/09/10 15:05:52;;;;;;;5.05;0.82;;;;;;;;;;8290928;28;20069;-59
2022/09/10 15:09:52;;;;;;;0.80;0.63;;;;;;;;;;8290554;28;20456;-59
2022/09/10 15:13:54;;;;;;;1.10;0.65;;;;;;;;;;8294568;28;20386;-59
2022/09/10 15:17:56;;;;;;;0.73;0.50;;;;;;;;;;8289835;28;20056;-59
2022/09/10 15:21:56;;;;;;;0.60;0.60;;;;;;;;;;8290113;28;20036;-60
2022/09/10 15:25:58;;;;;;;0.52;0.52;;;;;;;;;;8294175;28;20029;-60
2022/09/10 15:29:59;;;;;;;1.17;0.73;;;;;;;;;;8288683;28;20021;-59
2022/09/10 15:33:59;;;;;;;1.77;0.60;;;;;;;;;;8289493;28;20034;-59
2022/09/10 15:38:02;;;;;;;0.70;0.65;;;;;;;;;;8291269;28;20057;-59
2022/09/10 15:42:03;;;;;;;1.00;0.60;;;;;;;;;;8294889;28;20971;-60
2022/09/10 15:46:03;;;;;;;1.65;1.00;;;;;;;;;;8281084;28;20041;-60
2022/09/10 15:50:03;;;;;;;0.70;0.70;;;;;;;;;;8291391;28;20028;-59
2022/09/10 15:54:05;;;;;;;1.23;0.70;;;;;;;;;;8295182;28;20021;-59
2022/09/10 15:58:05;;;;;;;0.63;0.63;;;;;;;;;;8291535;28;20033;-59
2022/09/10 16:02:05;;;;;;;0.97;0.70;;;;;;;;;;8287401;28;20040;-60
2022/09/10 16:06:06;;;;;;;0.73;0.73;;;;;;;;;;8294215;28;20037;-60
2022/09/10 16:10:06;;;;;;;1.45;0.88;;;;;;;;;;8289019;28;20104;-59
2022/09/10 16:14:08;;;;;;;0.80;0.80;;;;;;;;;;8293678;28;20125;-60
2022/09/10 16:18:08;;;;;;;1.45;0.90;;;;;;;;;;8290446;28;20079;-59
2022/09/10 16:22:08;;;;;;;1.73;1.00;;;;;;;;;;8290457;28;20061;-60
2022/09/10 16:26:14;;;;;;;7.18;0.90;;;;;;;;;;8290753;28;20060;-60
2022/09/10 16:30:14;;;;;;;2.13;0.95;;;;;;;;;;8291433;28;20032;-59
2022/09/10 16:34:17;;;;;;;5.33;1.10;;;;;;;;;;8291698;28;20017;-60
2022/09/10 16:38:17;;;;;;;2.40;1.25;;;;;;;;;;8289425;28;20283;-59
2022/09/10 16:42:18;;;;;;;1.98;1.05;;;;;;;;;;8288935;28;20693;-60
2022/09/10 16:46:18;;;;;;;1.95;1.13;;;;;;;;;;8290522;28;20049;-60
2022/09/10 16:50:19;;;;;;;2.65;1.13;;;;;;;;;;8289470;28;20881;-59
2022/09/10 16:54:19;;;;;;;3.30;1.30;;;;;;;;;;8291929;28;20128;-60
2022/09/10 16:58:19;;;;;;;4.50;1.60;;;;;;;;;;8293318;28;20102;-59
2022/09/10 17:02:20;;;;;;;4.30;1.20;;;;;;;;;;8306985;28;20092;-60
2022/09/10 17:06:23;;;;;;;3.33;1.50;;;;;;;;;;8320914;28;20021;-59
2022/09/10 17:10:25;;;;;;;1.67;1.00;;;;;;;;;;8323071;28;20031;-60
2022/09/10 17:14:25;;;;;;;2.73;1.30;;;;;;;;;;8322719;28;20399;-59
2022/09/10 17:18:26;;;;;;;2.75;1.10;;;;;;;;;;8321054;28;20543;-59
2022/09/10 17:22:26;;;;;;;3.00;1.50;;;;;;;;;;8321426;28;20151;-59
2022/09/10 17:26:27;;;;;;;2.25;1.60;;;;;;;;;;8322912;28;20032;-59
2022/09/10 17:30:27;;;;;;;4.25;1.52;;;;;;;;;;8322944;28;20037;-59
2022/09/10 17:34:27;;;;;;;3.30;1.73;;;;;;;;;;8325219;28;20084;-60
2022/09/10 17:38:29;;;;;;;4.00;1.58;;;;;;;;;;8329511;28;20485;-60
2022/09/10 17:42:29;;;;;;;3.90;1.80;;;;;;;;;;8331895;28;20036;-60
2022/09/10 17:46:29;;;;;;;2.92;1.70;;;;;;;;;;8322862;28;20041;-59
2022/09/10 17:50:30;;;;;;;4.47;2.05;;;;;;;;;;8328299;28;20065;-60
2022/09/10 17:54:30;;;;;;;2.53;1.58;;;;;;;;;;8331211;28;20028;-60
2022/09/10 17:58:32;;;;;;;7.03;1.90;;;;;;;;;;8330121;28;20576;-60
2022/09/10 18:02:32;;;;;;;3.90;1.80;;;;;;;;;;8325630;28;20970;-60
2022/09/10 18:06:35;;;;;;;2.75;1.80;;;;;;;;;;8329990;28;20041;-59
2022/09/10 18:10:36;;;;;;;5.07;1.90;;;;;;;;;;8332431;28;20024;-59
2022/09/10 18:14:37;;;;;;;6.10;1.95;;;;;;;;;;8331780;28;20089;-59
2022/09/10 18:18:38;;;;;;;7.63;2.10;;;;;;;;;;8325186;28;20075;-60
2022/09/10 18:22:38;;;;;;;2.78;1.50;;;;;;;;;;8329432;28;20768;-59
2022/09/10 18:26:41;;;;;;;3.38;1.60;;;;;;;;;;8331410;28;20024;-60
2022/09/10 18:30:41;;;;;;;3.42;1.70;;;;;;;;;;8328326;28;20513;-59
2022/09/10 18:34:41;;;;;;;3.78;1.65;;;;;;;;;;8329634;28;20037;-59
2022/09/10 18:38:42;;;;;;;3.85;1.80;;;;;;;;;;8325923;28;20043;-60
2022/09/10 18:42:42;;;;;;;3.63;1.80;;;;;;;;;;8326631;28;20036;-59
2022/09/10 18:46:43;;;;;;;3.63;1.90;;;;;;;;;;8328092;28;20411;-59
2022/09/10 18:50:43;;;;;;;5.18;2.35;;;;;;;;;;8325561;28;20052;-60
2022/09/10 18:54:44;;;;;;;5.38;2.45;;;;;;;;;;8326791;28;20024;-59
2022/09/10 18:58:47;;;;;;;5.68;2.10;;;;;;;;;;8324083;28;20016;-60
2022/09/10 19:02:48;;;;;;;;;;;;;;;;;;8328088;28;20771;-59
2022/09/10 19:06:48;;;;;;;4.32;2.10;;;;;;;;;;8326302;28;20061;-59
2022/09/10 19:10:48;;;;;;;4.18;2.00;;;;;;;;;;8326353;28;20087;-59
2022/09/10 19:14:48;;;;;;;5.85;2.33;;;;;;;;;;8326404;28;20037;-59
2022/09/10 19:18:49;;;;;;;4.53;1.98;;;;;;;;;;8323524;28;20160;-60
2022/09/10 19:22:50;;;;;;;2.65;2.13;;;;;;;;;;8326346;28;20686;-60
2022/09/10 19:26:50;;;;;;;3.92;2.13;;;;;;;;;;8327444;28;20459;-60
2022/09/10 19:30:53;;;;;;;6.60;2.45;;;;;;;;;;8323539;28;20068;-60
2022/09/10 19:34:54;;;;;;;4.63;2.10;;;;;;;;;;8321941;28;20412;-59
2022/09/10 19:38:54;;;;;;;3.42;1.95;;;;;;;;;;8326278;28;20115;-60
2022/09/10 19:42:54;;;;;;;2.78;1.80;;;;;;;;;;8326102;28;20094;-59
2022/09/10 19:46:54;;;;;;;5.03;2.08;;;;;;;;;;8322731;28;20775;-59
2022/09/10 19:50:55;;;;;;;4.07;2.08;;;;;;;;;;8325197;28;20037;-60
2022/09/10 19:54:55;;;;;;;3.13;1.73;;;;;;;;;;8323571;28;20140;-59
2022/09/10 19:58:56;;;;;;;3.75;1.77;;;;;;;;;;8325285;28;20615;-59
2022/09/10 20:02:56;;;;;;;2.50;1.40;;;;;;;;;;8321033;28;20489;-59
2022/09/10 20:06:57;;;;;;;2.05;1.50;;;;;;;;;;8320489;28;20137;-60
2022/09/10 20:10:57;;;;;;;3.70;1.60;;;;;;;;;;8322719;28;20085;-60
2022/09/10 20:14:57;;;;;;;2.22;1.73;;;;;;;;;;8325137;28;20032;-58
2022/09/10 20:18:57;;;;;;;2.97;1.40;;;;;;;;;;8324071;28;20124;-60
2022/09/10 20:22:59;;;;;;;1.30;1.17;;;;;;;;;;8323167;28;20025;-60
2022/09/10 20:26:59;;;;;;;1.27;1.23;;;;;;;;;;8324333;28;20374;-60
2022/09/10 20:31:02;;;;;;;2.33;1.50;;;;;;;;;;8325401;28;20033;-60
2022/09/10 20:35:03;;;;;;;3.17;1.25;;;;;;;;;;8324106;28;20639;-59
2022/09/10 20:39:05;;;;;;;2.13;1.30;;;;;;;;;;8324394;28;20075;-59
2022/09/10 20:43:05;;;;;;;1.75;1.15;;;;;;;;;;8323993;28;20411;-60
2022/09/10 20:47:06;;;;;;;1.75;1.27;;;;;;;;;;8321214;28;20056;-60
2022/09/10 20:51:08;;;;;;;1.25;1.15;;;;;;;;;;8325042;28;20584;-60
2022/09/10 20:55:08;;;;;;;1.15;1.02;;;;;;;;;;8325218;28;20025;-60
2022/09/10 20:59:10;;;;;;;3.00;1.27;;;;;;;;;;8327988;28;20068;-60
2022/09/10 21:03:11;;;;;;;2.80;1.27;;;;;;;;;;8322129;28;20569;-60
2022/09/10 21:07:11;;;;;;;2.45;1.30;;;;;;;;;;8324909;28;20404;-59
2022/09/10 21:11:16;;;;;;;1.87;1.40;;;;;;;;;;8324836;28;20028;-60
2022/09/10 21:15:16;;;;;;;2.20;1.30;;;;;;;;;;8325812;28;20298;-60
2022/09/10 21:19:16;;;;;;;5.22;1.52;;;;;;;;;;8320184;28;20035;-60
2022/09/10 21:23:19;;;;;;;2.40;1.43;;;;;;;;;;8320775;28;20148;-60
2022/09/10 21:27:19;;;;;;;2.75;1.70;;;;;;;;;;8324092;28;20896;-60
2022/09/10 21:31:19;;;;;;;1.45;1.35;;;;;;;;;;8321573;28;20313;-60
2022/09/10 21:35:19;;;;;;;4.88;1.48;;;;;;;;;;8324107;28;20028;-60
2022/09/10 21:39:19;;;;;;;3.30;1.50;;;;;;;;;;8321627;28;20048;-60
2022/09/10 21:43:19;;;;;;;2.42;1.67;;;;;;;;;;8320747;28;20143;-60
2022/09/10 21:47:20;;;;;;;3.28;1.60;;;;;;;;;;8324428;28;20044;-60
2022/09/10 21:51:20;;;;;;;2.38;1.75;;;;;;;;;;8318542;28;20586;-60
2022/09/10 21:55:21;;;;;;;1.85;1.40;;;;;;;;;;8321489;28;20183;-60
2022/09/10 21:59:21;;;;;;;2.78;1.60;;;;;;;;;;8322347;28;20031;-60
2022/09/10 22:03:21;;;;;;;4.68;1.67;;;;;;;;;;8324452;28;20025;-60
2022/09/10 22:07:21;;;;;;;4.25;1.60;;;;;;;;;;8328093;28;20016;-59
2022/09/10 22:11:23;;;;;;;2.92;2.05;;;;;;;;;;8329301;28;20125;-60
2022/09/10 22:15:23;;;;;;;2.47;1.90;;;;;;;;;;8328641;28;20478;-60
2022/09/10 22:19:24;;;;;;;3.20;1.90;;;;;;;;;;8326565;28;20022;-59
2022/09/10 22:23:24;;;;;;;2.58;1.58;;;;;;;;;;8327832;28;20272;-59
2022/09/10 22:27:24;;;;;;;2.22;1.83;;;;;;;;;;8330420;28;20177;-60
2022/09/10 22:31:26;;;;;;;5.18;2.05;;;;;;;;;;8325955;28;20596;-60
2022/09/10 22:35:26;;;;;;;3.72;2.10;;;;;;;;;;8324926;28;20060;-59
2022/09/10 22:39:28;;;;;;;5.30;2.00;;;;;;;;;;8326843;28;20028;-59
2022/09/10 22:43:29;;;;;;;4.20;1.90;;;;;;;;;;8327893;28;20029;-59
2022/09/10 22:47:29;;;;;;;3.28;1.83;;;;;;;;;;8324622;28;20037;-59
2022/09/10 22:51:30;;;;;;;2.08;1.98;;;;;;;;;;8321441;28;20068;-59
2022/09/10 22:55:31;;;;;;;2.50;1.83;;;;;;;;;;8329011;28;20625;-60
2022/09/10 22:59:36;;;;;;;4.55;1.83;;;;;;;;;;8326804;28;20024;-59
2022/09/10 23:03:36;;;;;;;3.08;1.70;;;;;;;;;;8327838;28;20769;-59
2022/09/10 23:07:36;;;;;;;3.05;1.80;;;;;;;;;;8324682;28;20891;-59
2022/09/10 23:11:37;;;;;;;5.28;2.00;;;;;;;;;;8322589;28;20025;-60
2022/09/10 23:15:38;;;;;;;2.70;1.70;;;;;;;;;;8323445;28;20146;-60
2022/09/10 23:19:38;;;;;;;3.03;1.90;;;;;;;;;;8319056;28;20021;-60
2022/09/10 23:23:38;;;;;;;2.78;1.67;;;;;;;;;;8322583;28;20068;-60
2022/09/10 23:27:39;;;;;;;3.42;1.70;;;;;;;;;;8320249;28;20056;-59
2022/09/10 23:31:40;;;;;;;8.43;1.95;;;;;;;;;;8322607;28;20044;-60
2022/09/10 23:35:47;;;;;;;1.95;1.60;;;;;;;;;;8330685;28;20088;-60
2022/09/10 23:39:48;;;;;;;3.42;1.55;;;;;;;;;;8325810;28;20029;-60
2022/09/10 23:43:48;;;;;;;2.17;1.50;;;;;;;;;;8326325;28;20037;-59
2022/09/10 23:47:48;;;;;;;3.05;1.92;;;;;;;;;;8323142;28;20587;-59
2022/09/10 23:51:49;;;;;;;1.67;1.42;;;;;;;;;;8323043;28;20362;-60
2022/09/10 23:55:50;;;;;;;3.80;1.88;;;;;;;;;;8323347;28;20553;-59
2022/09/10 23:59:51;;;;;;;4.32;1.90;;;;;;;;;;8319751;28;20021;-60
